createdAt,value
2023-05-14T00:00:26.133Z,98759.41
2023-05-14T00:02:53.948Z,98756.06
2023-05-14T00:05:22.110Z,98752.88
2023-05-14T00:07:49.850Z,98750.13
2023-05-14T00:10:19.141Z,98750.00
2023-05-14T00:12:48.351Z,98748.75
2023-05-14T00:15:16.070Z,98749.19
2023-05-14T00:17:43.827Z,98748.03
2023-05-14T00:20:14.888Z,98744.06
2023-05-14T00:22:44.597Z,98743.84
2023-05-14T00:25:12.332Z,98739.25
2023-05-14T00:27:40.073Z,98740.38
2023-05-14T00:30:09.892Z,98732.13
2023-05-14T00:32:37.617Z,98727.69
2023-05-14T00:35:06.037Z,98730.22
2023-05-14T00:37:33.794Z,98723.25
2023-05-14T00:40:06.660Z,98720.91
2023-05-14T00:42:34.967Z,98706.97
2023-05-14T00:45:02.712Z,98723.06
2023-05-14T00:47:33.406Z,98708.47
2023-05-14T00:50:01.440Z,98710.69
2023-05-14T00:52:29.216Z,98714.69
2023-05-14T00:54:57.870Z,98705.25
2023-05-14T00:57:27.556Z,98721.94
2023-05-14T00:59:55.411Z,98720.66
2023-05-14T01:02:23.283Z,98722.63
2023-05-14T01:04:53.240Z,98718.94
2023-05-14T01:07:31.250Z,98713.97
2023-05-14T01:10:07.891Z,98726.28
2023-05-14T01:12:41.167Z,98712.94
2023-05-14T01:15:12.544Z,98714.84
2023-05-14T01:17:43.998Z,98715.66
2023-05-14T01:20:13.634Z,98714.47
2023-05-14T01:22:42.801Z,98714.53
2023-05-14T01:25:11.386Z,98713.00
2023-05-14T01:27:48.725Z,98709.84
2023-05-14T01:30:22.996Z,98714.13
2023-05-14T01:32:52.692Z,98700.81
2023-05-14T01:35:23.552Z,98703.13
2023-05-14T01:37:55.774Z,98709.66
2023-05-14T01:40:24.740Z,98719.06
2023-05-14T01:42:54.664Z,98710.13
2023-05-14T01:45:22.424Z,98725.00
2023-05-14T01:47:50.576Z,98715.69
2023-05-14T01:50:20.368Z,98719.16
2023-05-14T01:52:49.022Z,98711.34
2023-05-14T01:55:18.356Z,98713.47
2023-05-14T01:57:46.063Z,98708.06
2023-05-14T02:00:14.886Z,98716.06
2023-05-14T02:02:42.680Z,98710.47
2023-05-14T02:05:13.724Z,98708.72
2023-05-14T02:07:43.256Z,98712.44
2023-05-14T02:10:11.454Z,98706.41
2023-05-14T02:12:40.714Z,98693.28
2023-05-14T02:15:10.910Z,98695.28
2023-05-14T02:17:39.099Z,98684.66
2023-05-14T02:20:09.543Z,98697.03
2023-05-14T02:22:37.814Z,98692.81
2023-05-14T02:25:06.152Z,98702.09
2023-05-14T02:27:34.663Z,98696.59
2023-05-14T02:30:04.644Z,98700.25
2023-05-14T02:32:32.474Z,98698.88
2023-05-14T02:35:00.454Z,98697.50
2023-05-14T02:37:28.135Z,98688.72
2023-05-14T02:39:55.942Z,98707.03
2023-05-14T02:42:23.790Z,98711.09
2023-05-14T02:44:52.832Z,98712.44
2023-05-14T02:47:22.137Z,98705.03
2023-05-14T02:49:52.677Z,98710.81
2023-05-14T02:52:21.211Z,98699.41
2023-05-14T02:54:48.940Z,98709.72
2023-05-14T02:57:16.698Z,98710.25
2023-05-14T02:59:44.471Z,98713.72
2023-05-14T03:02:12.699Z,98707.06
2023-05-14T03:04:42.293Z,98709.34
2023-05-14T03:07:10.083Z,98708.69
2023-05-14T03:09:38.424Z,98717.56
2023-05-14T03:12:06.942Z,98711.13
2023-05-14T03:14:34.859Z,98710.00
2023-05-14T03:17:03.946Z,98710.13
2023-05-14T03:19:31.814Z,98701.31
2023-05-14T03:22:01.033Z,98699.06
2023-05-14T03:24:28.748Z,98696.09
2023-05-14T03:26:56.484Z,98696.69
2023-05-14T03:29:24.347Z,98704.38
2023-05-14T03:31:52.165Z,98699.25
2023-05-14T03:34:20.127Z,98700.44
2023-05-14T03:36:47.860Z,98703.50
2023-05-14T03:39:19.685Z,98699.50
2023-05-14T03:41:47.760Z,98703.22
2023-05-14T03:44:15.852Z,98704.63
2023-05-14T03:46:43.554Z,98709.63
2023-05-14T03:49:12.983Z,98709.84
2023-05-14T03:51:40.933Z,98704.94
2023-05-14T03:54:08.812Z,98704.34
2023-05-14T03:56:37.901Z,98700.00
2023-05-14T03:59:05.747Z,98704.47
2023-05-14T04:01:33.552Z,98706.19
2023-05-14T04:04:03.165Z,98699.03
2023-05-14T04:06:32.299Z,98698.06
2023-05-14T04:09:00.131Z,98707.47
2023-05-14T04:11:28.080Z,98707.75
2023-05-14T04:13:57.225Z,98699.38
2023-05-14T04:16:25.019Z,98693.56
2023-05-14T04:18:52.836Z,98708.78
2023-05-14T04:21:21.936Z,98704.50
2023-05-14T04:23:50.825Z,98690.41
2023-05-14T04:26:18.663Z,98695.91
2023-05-14T04:28:46.394Z,98699.78
2023-05-14T04:31:16.462Z,98696.81
2023-05-14T04:33:44.346Z,98695.28
2023-05-14T04:36:12.444Z,98696.69
2023-05-14T04:38:41.037Z,98698.06
2023-05-14T04:41:08.903Z,98702.69
2023-05-14T04:43:39.125Z,98697.97
2023-05-14T04:46:07.734Z,98693.47
2023-05-14T04:48:37.138Z,98696.63
2023-05-14T04:51:07.128Z,98696.41
2023-05-14T04:53:35.061Z,98700.03
2023-05-14T04:56:02.756Z,98697.22
2023-05-14T04:58:34.531Z,98717.47
2023-05-14T05:01:03.934Z,98708.84
2023-05-14T05:03:32.214Z,98717.84
2023-05-14T05:06:01.436Z,98706.19
2023-05-14T05:08:29.308Z,98701.00
2023-05-14T05:10:57.009Z,98699.75
2023-05-14T05:13:24.829Z,98703.03
2023-05-14T05:15:52.595Z,98703.78
2023-05-14T05:18:20.462Z,98699.78
2023-05-14T05:20:48.297Z,98703.97
2023-05-14T05:23:17.454Z,98701.31
2023-05-14T05:25:45.150Z,98707.56
2023-05-14T05:28:12.905Z,98705.13
2023-05-14T05:30:40.949Z,98697.72
2023-05-14T05:33:08.793Z,98692.97
2023-05-14T05:35:36.572Z,98690.03
2023-05-14T05:38:04.440Z,98687.59
2023-05-14T05:40:33.655Z,98699.94
2023-05-14T05:43:01.424Z,98691.63
2023-05-14T05:45:29.152Z,98687.00
2023-05-14T05:47:56.899Z,98695.53
2023-05-14T05:50:25.572Z,98691.00
2023-05-14T05:52:53.599Z,98697.78
2023-05-14T05:55:21.480Z,98699.88
2023-05-14T05:57:50.810Z,98697.66
2023-05-14T06:00:19.246Z,98696.00
2023-05-14T06:02:47.522Z,98699.59
2023-05-14T06:05:18.978Z,98696.22
2023-05-14T06:07:46.808Z,98691.81
2023-05-14T06:10:14.632Z,98695.34
2023-05-14T06:12:42.432Z,98686.81
2023-05-14T06:15:12.743Z,98697.50
2023-05-14T06:17:40.621Z,98699.59
2023-05-14T06:20:09.949Z,98700.50
2023-05-14T06:22:37.917Z,98697.25
2023-05-14T06:25:06.203Z,98687.41
2023-05-14T06:27:34.017Z,98692.34
2023-05-14T06:30:01.759Z,98694.06
2023-05-14T06:32:30.836Z,98696.00
2023-05-14T06:34:58.645Z,98698.25
2023-05-14T06:37:26.426Z,98695.88
2023-05-14T06:39:54.740Z,98689.66
2023-05-14T06:42:24.134Z,98689.53
2023-05-14T06:44:51.925Z,98690.72
2023-05-14T06:47:19.672Z,98689.25
2023-05-14T06:49:49.065Z,98687.34
2023-05-14T06:52:18.458Z,98687.72
2023-05-14T06:54:46.237Z,98677.81
2023-05-14T06:57:13.952Z,98683.06
2023-05-14T06:59:41.736Z,98678.56
2023-05-14T07:02:09.412Z,98683.84
2023-05-14T07:04:37.402Z,98687.44
2023-05-14T07:07:06.779Z,98680.69
2023-05-14T07:09:34.540Z,98678.69
2023-05-14T07:12:02.292Z,98675.53
2023-05-14T07:14:33.081Z,98676.97
2023-05-14T07:17:01.319Z,98683.75
2023-05-14T07:19:30.169Z,98681.66
2023-05-14T07:21:58.504Z,98680.88
2023-05-14T07:24:27.611Z,98678.28
2023-05-14T07:26:57.234Z,98671.19
2023-05-14T07:29:25.717Z,98673.44
2023-05-14T07:31:53.532Z,98674.75
2023-05-14T07:34:22.992Z,98680.44
2023-05-14T07:36:50.805Z,98674.88
2023-05-14T07:39:18.668Z,98675.09
2023-05-14T07:41:47.931Z,98659.66
2023-05-14T07:44:15.787Z,98662.31
2023-05-14T07:46:43.678Z,98658.16
2023-05-14T07:49:11.380Z,98667.13
2023-05-14T07:51:39.225Z,98671.59
2023-05-14T07:54:06.977Z,98658.31
2023-05-14T07:56:34.777Z,98663.94
2023-05-14T07:59:04.102Z,98662.53
2023-05-14T08:01:32.291Z,98665.50
2023-05-14T08:04:00.146Z,98663.94
2023-05-14T08:06:28.260Z,98662.00
2023-05-14T08:08:55.989Z,98661.97
2023-05-14T08:11:23.780Z,98661.13
2023-05-14T08:13:51.538Z,98654.78
2023-05-14T08:16:20.641Z,98651.97
2023-05-14T08:18:49.442Z,98653.72
2023-05-14T08:21:17.628Z,98652.00
2023-05-14T08:23:48.321Z,98643.91
2023-05-14T08:26:16.055Z,98645.47
2023-05-14T08:28:44.051Z,98647.03
2023-05-14T08:31:11.859Z,98651.81
2023-05-14T08:33:41.216Z,98637.44
2023-05-14T08:36:09.553Z,98638.88
2023-05-14T08:38:37.342Z,98636.25
2023-05-14T08:41:07.050Z,98643.59
2023-05-14T08:43:45.826Z,98647.50
2023-05-14T08:46:16.116Z,98640.75
2023-05-14T08:48:49.325Z,98646.13
2023-05-14T08:51:17.344Z,98633.38
2023-05-14T08:53:45.784Z,98629.25
2023-05-14T08:56:14.295Z,98640.03
2023-05-14T08:58:42.106Z,98634.63
2023-05-14T09:01:09.824Z,98628.13
2023-05-14T09:03:38.522Z,98627.59
2023-05-14T09:06:09.051Z,98630.47
2023-05-14T09:08:38.716Z,98631.19
2023-05-14T09:11:06.754Z,98627.91
2023-05-14T09:13:34.675Z,98627.34
2023-05-14T09:16:06.785Z,98625.38
2023-05-14T09:18:37.184Z,98628.00
2023-05-14T09:21:07.160Z,98626.44
2023-05-14T09:23:35.735Z,98624.16
2023-05-14T09:26:07.724Z,98626.69
2023-05-14T09:28:35.658Z,98621.69
2023-05-14T09:31:05.090Z,98616.66
2023-05-14T09:33:33.094Z,98622.41
2023-05-14T09:36:01.114Z,98621.09
2023-05-14T09:38:33.965Z,98620.25
2023-05-14T09:41:01.964Z,98626.94
2023-05-14T09:43:29.763Z,98612.16
2023-05-14T09:45:57.750Z,98614.78
2023-05-14T09:48:26.326Z,98607.25
2023-05-14T09:50:54.289Z,98601.56
2023-05-14T09:53:22.426Z,98600.44
2023-05-14T09:55:51.608Z,98599.09
2023-05-14T09:58:19.486Z,98600.06
2023-05-14T10:00:48.274Z,98600.13
2023-05-14T10:03:19.542Z,98600.66
2023-05-14T10:05:50.198Z,98595.63
2023-05-14T10:08:23.270Z,98598.38
2023-05-14T10:10:54.363Z,98596.25
2023-05-14T10:13:25.233Z,98605.22
2023-05-14T10:15:58.601Z,98601.13
2023-05-14T10:18:31.834Z,98598.19
2023-05-14T10:21:05.587Z,98607.97
2023-05-14T10:23:34.210Z,98598.09
2023-05-14T10:26:06.531Z,98604.66
2023-05-14T10:28:34.496Z,98604.19
2023-05-14T10:31:02.220Z,98600.06
2023-05-14T10:33:30.039Z,98600.38
2023-05-14T10:36:03.928Z,98608.22
2023-05-14T10:41:03.625Z,98595.47
2023-05-14T10:43:32.164Z,98601.47
2023-05-14T10:46:02.726Z,98589.19
2023-05-14T10:48:30.772Z,98596.31
2023-05-14T10:50:59.009Z,98590.00
2023-05-14T10:53:35.397Z,98576.63
2023-05-14T10:56:07.878Z,98571.25
2023-05-14T10:58:39.401Z,98576.59
2023-05-14T11:01:12.973Z,98572.63
2023-05-14T11:03:42.773Z,98576.22
2023-05-14T11:06:12.291Z,98565.00
2023-05-14T11:08:41.521Z,98555.03
2023-05-14T11:11:11.555Z,98558.19
2023-05-14T11:13:39.627Z,98565.03
2023-05-14T11:18:38.771Z,98554.25
2023-05-14T11:21:07.049Z,98541.09
2023-05-14T11:23:34.874Z,98547.44
2023-05-14T11:26:02.974Z,98548.56
2023-05-14T11:28:32.273Z,98539.47
2023-05-14T11:31:02.483Z,98537.75
2023-05-14T11:33:30.462Z,98542.00
2023-05-14T11:35:58.326Z,98535.41
2023-05-14T11:38:26.114Z,98532.38
2023-05-14T11:40:57.213Z,98547.09
2023-05-14T11:43:26.159Z,98533.84
2023-05-14T11:45:55.615Z,98527.88
2023-05-14T11:48:24.851Z,98530.44
2023-05-14T11:50:54.121Z,98525.69
2023-05-14T11:53:27.027Z,98525.28
2023-05-14T11:55:57.579Z,98526.28
2023-05-14T11:58:25.812Z,98519.97
2023-05-14T12:00:57.034Z,98528.75
2023-05-14T12:03:26.760Z,98514.22
2023-05-14T12:06:02.965Z,98525.94
2023-05-14T12:08:32.457Z,98522.03
2023-05-14T12:11:01.390Z,98522.66
2023-05-14T12:13:30.641Z,98514.06
2023-05-14T12:16:02.031Z,98516.94
2023-05-14T12:18:31.642Z,98513.97
2023-05-14T12:21:04.341Z,98509.75
2023-05-14T12:23:33.281Z,98505.81
2023-05-14T12:26:02.808Z,98508.81
2023-05-14T12:28:30.962Z,98499.25
2023-05-14T12:31:00.418Z,98502.16
2023-05-14T12:33:28.798Z,98494.75
2023-05-14T12:36:07.390Z,98486.91
2023-05-14T12:38:42.084Z,98484.59
2023-05-14T12:41:09.802Z,98479.69
2023-05-14T12:43:37.456Z,98480.25
2023-05-14T12:46:06.675Z,98489.59
2023-05-14T12:48:34.430Z,98477.16
2023-05-14T12:51:02.164Z,98475.28
2023-05-14T12:53:29.874Z,98477.25
2023-05-14T12:55:57.593Z,98470.03
2023-05-14T12:58:25.364Z,98466.13
2023-05-14T13:00:53.341Z,98473.50
2023-05-14T13:03:22.473Z,98467.66
2023-05-14T13:05:51.675Z,98456.41
2023-05-14T13:08:21.544Z,98455.75
2023-05-14T13:10:49.290Z,98455.91
2023-05-14T13:13:17.606Z,98466.00
2023-05-14T13:15:46.680Z,98457.13
2023-05-14T13:18:14.473Z,98444.88
2023-05-14T13:20:43.540Z,98448.16
2023-05-14T13:23:11.257Z,98445.47
2023-05-14T13:25:39.139Z,98440.06
2023-05-14T13:28:06.882Z,98445.59
2023-05-14T13:30:34.609Z,98446.91
2023-05-14T13:33:02.517Z,98442.78
2023-05-14T13:35:30.371Z,98439.63
2023-05-14T13:37:59.548Z,98439.16
2023-05-14T13:40:27.315Z,98433.78
2023-05-14T13:42:55.104Z,98428.75
2023-05-14T13:45:23.154Z,98428.88
2023-05-14T13:47:51.712Z,98429.94
2023-05-14T13:50:19.661Z,98436.09
2023-05-14T13:52:47.436Z,98430.50
2023-05-14T13:55:17.249Z,98439.66
2023-05-14T13:57:45.296Z,98428.47
2023-05-14T14:00:15.015Z,98431.31
2023-05-14T14:02:42.783Z,98423.28
2023-05-14T14:05:10.898Z,98413.81
2023-05-14T14:07:39.647Z,98419.13
2023-05-14T14:10:08.963Z,98411.25
2023-05-14T14:12:38.119Z,98412.44
2023-05-14T14:15:07.429Z,98409.75
2023-05-14T14:17:35.227Z,98409.81
2023-05-14T14:20:05.914Z,98397.81
2023-05-14T14:22:37.106Z,98394.66
2023-05-14T14:25:05.228Z,98396.56
2023-05-14T14:27:34.850Z,98398.75
2023-05-14T14:30:03.950Z,98392.50
2023-05-14T14:32:31.702Z,98386.94
2023-05-14T14:34:59.496Z,98377.19
2023-05-14T14:37:27.551Z,98389.56
2023-05-14T14:39:55.183Z,98389.88
2023-05-14T14:42:22.850Z,98396.47
2023-05-14T14:44:50.846Z,98388.97
2023-05-14T14:47:19.873Z,98387.44
2023-05-14T14:49:47.616Z,98387.97
2023-05-14T14:52:15.316Z,98387.44
2023-05-14T14:54:43.153Z,98387.84
2023-05-14T14:57:13.750Z,98375.31
2023-05-14T14:59:41.510Z,98367.75
2023-05-14T15:02:10.307Z,98373.94
2023-05-14T15:04:39.526Z,98381.25
2023-05-14T15:07:07.241Z,98365.38
2023-05-14T15:09:35.036Z,98377.78
2023-05-14T15:12:02.869Z,98373.53
2023-05-14T15:14:30.621Z,98378.00
2023-05-14T15:16:58.558Z,98368.00
2023-05-14T15:19:28.001Z,98371.59
2023-05-14T15:21:57.154Z,98368.78
2023-05-14T15:24:26.149Z,98369.06
2023-05-14T15:26:54.007Z,98358.06
2023-05-14T15:29:22.390Z,98364.66
2023-05-14T15:31:50.190Z,98351.91
2023-05-14T15:34:17.991Z,98362.56
2023-05-14T15:36:45.807Z,98361.72
2023-05-14T15:39:15.213Z,98358.94
2023-05-14T15:41:43.017Z,98362.66
2023-05-14T15:44:10.805Z,98371.00
2023-05-14T15:46:38.880Z,98370.03
2023-05-14T15:49:06.698Z,98371.88
2023-05-14T15:51:35.224Z,98365.25
2023-05-14T15:54:03.138Z,98367.63
2023-05-14T15:56:32.365Z,98362.06
2023-05-14T15:59:00.181Z,98354.56
2023-05-14T16:01:27.940Z,98361.72
2023-05-14T16:03:56.027Z,98358.94
2023-05-14T16:06:23.903Z,98358.13
2023-05-14T16:08:52.161Z,98364.66
2023-05-14T16:11:19.865Z,98362.28
2023-05-14T16:13:49.517Z,98365.81
2023-05-14T16:16:17.393Z,98365.81
2023-05-14T16:18:45.239Z,98364.41
2023-05-14T16:21:13.269Z,98367.47
2023-05-14T16:23:41.288Z,98360.22
2023-05-14T16:26:09.119Z,98359.66
2023-05-14T16:28:36.893Z,98355.72
2023-05-14T16:31:06.086Z,98355.69
2023-05-14T16:33:33.774Z,98352.09
2023-05-14T16:36:01.583Z,98344.44
2023-05-14T16:38:29.337Z,98349.63
2023-05-14T16:40:57.016Z,98346.56
2023-05-14T16:43:24.918Z,98355.09
2023-05-14T16:45:52.740Z,98347.59
2023-05-14T16:48:23.781Z,98355.91
2023-05-14T16:50:52.285Z,98358.50
2023-05-14T16:53:20.066Z,98345.81
2023-05-14T16:55:47.915Z,98356.00
2023-05-14T16:58:15.683Z,98351.88
2023-05-14T17:00:43.409Z,98358.13
2023-05-14T17:03:11.169Z,98348.91
2023-05-14T17:05:40.302Z,98356.66
2023-05-14T17:08:08.036Z,98355.47
2023-05-14T17:10:35.852Z,98359.94
2023-05-14T17:13:05.788Z,98355.84
2023-05-14T17:15:33.700Z,98354.44
2023-05-14T17:18:01.713Z,98355.22
2023-05-14T17:20:30.681Z,98363.44
2023-05-14T17:22:59.769Z,98356.94
2023-05-14T17:25:27.691Z,98359.97
2023-05-14T17:27:55.437Z,98366.50
2023-05-14T17:30:23.196Z,98366.75
2023-05-14T17:32:51.289Z,98365.22
2023-05-14T17:35:19.254Z,98358.66
2023-05-14T17:37:47.050Z,98370.84
2023-05-14T17:40:16.259Z,98370.84
2023-05-14T17:42:45.443Z,98366.06
2023-05-14T17:45:14.474Z,98370.16
2023-05-14T17:47:42.266Z,98379.59
2023-05-14T17:50:11.383Z,98373.41
2023-05-14T17:52:40.857Z,98366.72
2023-05-14T17:55:09.327Z,98373.91
2023-05-14T17:57:38.670Z,98373.38
2023-05-14T18:00:08.249Z,98377.34
2023-05-14T18:02:39.043Z,98372.22
2023-05-14T18:05:07.562Z,98377.28
2023-05-14T18:07:36.877Z,98367.75
2023-05-14T18:10:04.931Z,98373.63
2023-05-14T18:12:32.802Z,98368.69
2023-05-14T18:15:01.883Z,98371.25
2023-05-14T18:17:29.746Z,98365.00
2023-05-14T18:19:57.497Z,98364.28
2023-05-14T18:22:25.226Z,98370.34
2023-05-14T18:24:52.961Z,98375.19
2023-05-14T18:27:20.744Z,98368.16
2023-05-14T18:29:48.498Z,98366.22
2023-05-14T18:32:17.543Z,98375.47
2023-05-14T18:34:45.330Z,98373.16
2023-05-14T18:37:13.687Z,98374.97
2023-05-14T18:39:41.446Z,98385.94
2023-05-14T18:42:09.891Z,98378.84
2023-05-14T18:44:39.426Z,98387.22
2023-05-14T18:47:07.819Z,98380.91
2023-05-14T18:49:40.129Z,98380.34
2023-05-14T18:52:08.174Z,98391.22
2023-05-14T18:54:38.906Z,98384.13
2023-05-14T18:57:07.163Z,98386.63
2023-05-14T18:59:34.934Z,98390.06
2023-05-14T19:02:02.800Z,98393.06
2023-05-14T19:04:33.268Z,98385.34
2023-05-14T19:07:02.939Z,98389.91
2023-05-14T19:09:30.770Z,98386.13
2023-05-14T19:11:58.664Z,98388.63
2023-05-14T19:14:27.855Z,98393.28
2023-05-14T19:16:55.718Z,98399.25
2023-05-14T19:19:23.518Z,98402.59
2023-05-14T19:21:51.261Z,98395.25
2023-05-14T19:24:20.321Z,98407.03
2023-05-14T19:26:50.777Z,98400.38
2023-05-14T19:29:18.605Z,98402.28
2023-05-14T19:31:47.086Z,98414.44
2023-05-14T19:34:14.909Z,98409.50
2023-05-14T19:36:43.205Z,98412.66
2023-05-14T19:39:12.020Z,98411.50
2023-05-14T19:41:41.199Z,98421.72
2023-05-14T19:44:08.955Z,98419.59
2023-05-14T19:46:37.706Z,98415.78
2023-05-14T19:49:05.422Z,98418.88
2023-05-14T19:51:33.183Z,98417.25
2023-05-14T19:54:01.159Z,98415.47
2023-05-14T19:56:31.611Z,98416.91
2023-05-14T19:59:00.849Z,98420.00
2023-05-14T20:01:28.956Z,98423.63
2023-05-14T20:03:56.754Z,98421.78
2023-05-14T20:06:24.566Z,98422.63
2023-05-14T20:08:52.435Z,98424.41
2023-05-14T20:11:20.187Z,98426.56
2023-05-14T20:13:50.959Z,98419.44
2023-05-14T20:16:20.258Z,98420.88
2023-05-14T20:18:48.031Z,98417.38
2023-05-14T20:21:16.212Z,98423.41
2023-05-14T20:23:44.050Z,98424.63
2023-05-14T20:26:11.820Z,98425.72
2023-05-14T20:28:39.611Z,98430.44
2023-05-14T20:31:07.964Z,98427.19
2023-05-14T20:33:37.275Z,98429.75
2023-05-14T20:36:05.276Z,98427.41
2023-05-14T20:38:34.887Z,98425.44
2023-05-14T20:41:02.892Z,98428.59
2023-05-14T20:43:30.788Z,98418.69
2023-05-14T20:45:59.321Z,98420.66
2023-05-14T20:48:27.124Z,98415.88
2023-05-14T20:50:56.242Z,98412.16
2023-05-14T20:53:25.365Z,98414.22
2023-05-14T20:55:53.238Z,98416.50
2023-05-14T20:58:21.245Z,98410.97
2023-05-14T21:00:48.992Z,98405.03
2023-05-14T21:03:17.173Z,98405.19
2023-05-14T21:05:45.222Z,98411.53
2023-05-14T21:08:14.296Z,98409.50
2023-05-14T21:10:42.057Z,98409.00
2023-05-14T21:13:09.839Z,98418.44
2023-05-14T21:15:37.817Z,98409.09
2023-05-14T21:18:05.738Z,98419.03
2023-05-14T21:20:33.640Z,98423.16
2023-05-14T21:23:01.419Z,98414.69
2023-05-14T21:25:31.158Z,98409.28
2023-05-14T21:27:58.904Z,98415.22
2023-05-14T21:30:26.653Z,98408.88
2023-05-14T21:32:54.476Z,98416.97
2023-05-14T21:35:22.475Z,98415.22
2023-05-14T21:37:53.344Z,98404.13
2023-05-14T21:40:21.165Z,98404.03
2023-05-14T21:42:51.085Z,98410.09
2023-05-14T21:45:19.399Z,98405.09
2023-05-14T21:47:48.040Z,98409.41
2023-05-14T21:50:15.866Z,98405.16
2023-05-14T21:52:43.596Z,98411.38
2023-05-14T21:55:11.355Z,98414.47
2023-05-14T21:57:39.234Z,98397.13
2023-05-14T22:00:13.282Z,98399.25
2023-05-14T22:02:42.924Z,98399.19
2023-05-14T22:05:10.927Z,98390.66
2023-05-14T22:07:38.703Z,98391.47
2023-05-14T22:10:07.372Z,98386.94
2023-05-14T22:12:35.146Z,98380.94
2023-05-14T22:15:03.214Z,98400.03
2023-05-14T22:17:34.422Z,98408.13
2023-05-14T22:20:02.408Z,98402.22
2023-05-14T22:22:30.249Z,98404.09
2023-05-14T22:24:58.005Z,98403.69
2023-05-14T22:27:25.823Z,98403.97
2023-05-14T22:29:55.095Z,98395.34
2023-05-14T22:32:23.177Z,98392.66
2023-05-14T22:34:52.360Z,98387.66
2023-05-14T22:37:20.116Z,98384.56
2023-05-14T22:39:47.883Z,98384.13
2023-05-14T22:42:15.708Z,98382.59
2023-05-14T22:44:43.426Z,98381.97
2023-05-14T22:47:11.676Z,98381.06
2023-05-14T22:49:40.107Z,98378.50
2023-05-14T22:52:09.682Z,98373.94
2023-05-14T22:54:37.470Z,98375.16
2023-05-14T22:57:05.775Z,98364.72
2023-05-14T22:59:33.842Z,98369.16
2023-05-14T23:02:01.626Z,98369.84
2023-05-14T23:04:29.417Z,98375.81
2023-05-14T23:06:57.256Z,98368.56
2023-05-14T23:09:26.281Z,98362.38
2023-05-14T23:11:54.093Z,98369.75
2023-05-14T23:14:22.637Z,98369.25
2023-05-14T23:16:50.515Z,98369.13
2023-05-14T23:19:18.458Z,98377.53
2023-05-14T23:21:46.280Z,98366.19
2023-05-14T23:24:14.031Z,98366.72
2023-05-14T23:26:43.153Z,98367.56
2023-05-14T23:29:10.944Z,98367.19
2023-05-14T23:31:44.350Z,98371.25
2023-05-14T23:34:12.146Z,98359.69
2023-05-14T23:36:43.020Z,98364.16
2023-05-14T23:39:10.791Z,98368.97
2023-05-14T23:41:38.503Z,98368.47
2023-05-14T23:44:07.901Z,98361.47
2023-05-14T23:46:35.762Z,98359.69
2023-05-14T23:49:04.873Z,98355.56
2023-05-14T23:51:32.661Z,98357.00
2023-05-14T23:54:00.410Z,98352.66
2023-05-14T23:56:29.048Z,98347.94
2023-05-14T23:58:57.218Z,98346.59
